sensor_id;sensor_type;location;lat;lon;timestamp;P1;durP1;ratioP1;P2;durP2;ratioP2
45764;SDS011;31474;45.332;10.230;2023-06-14T00:01:24;13.77;;;10.90;;
45764;SDS011;31474;45.332;10.230;2023-06-14T00:03:50;12.57;;;11.07;;
45764;SDS011;31474;45.332;10.230;2023-06-14T00:06:16;12.90;;;11.48;;
45764;SDS011;31474;45.332;10.230;2023-06-14T00:08:42;13.57;;;11.23;;
45764;SDS011;31474;45.332;10.230;2023-06-14T00:11:07;12.52;;;11.02;;
45764;SDS011;31474;45.332;10.230;2023-06-14T00:13:33;15.20;;;11.35;;
45764;SDS011;31474;45.332;10.230;2023-06-14T00:15:59;15.43;;;11.23;;
45764;SDS011;31474;45.332;10.230;2023-06-14T00:18:24;13.20;;;11.27;;
45764;SDS011;31474;45.332;10.230;2023-06-14T00:20:51;14.85;;;12.13;;
45764;SDS011;31474;45.332;10.230;2023-06-14T00:23:17;13.27;;;11.77;;
45764;SDS011;31474;45.332;10.230;2023-06-14T00:25:43;13.43;;;11.25;;
45764;SDS011;31474;45.332;10.230;2023-06-14T00:28:09;13.60;;;11.35;;
45764;SDS011;31474;45.332;10.230;2023-06-14T00:30:35;16.60;;;12.80;;
45764;SDS011;31474;45.332;10.230;2023-06-14T00:33:00;13.05;;;11.65;;
45764;SDS011;31474;45.332;10.230;2023-06-14T00:35:26;13.52;;;12.00;;
45764;SDS011;31474;45.332;10.230;2023-06-14T00:37:52;14.05;;;11.80;;
45764;SDS011;31474;45.332;10.230;2023-06-14T00:40:19;15.07;;;12.68;;
45764;SDS011;31474;45.332;10.230;2023-06-14T00:42:45;14.95;;;11.70;;
45764;SDS011;31474;45.332;10.230;2023-06-14T00:45:11;14.77;;;12.40;;
45764;SDS011;31474;45.332;10.230;2023-06-14T00:47:37;14.38;;;11.88;;
45764;SDS011;31474;45.332;10.230;2023-06-14T00:50:06;14.27;;;12.77;;
45764;SDS011;31474;45.332;10.230;2023-06-14T00:52:32;14.13;;;11.85;;
45764;SDS011;31474;45.332;10.230;2023-06-14T00:54:59;15.07;;;12.45;;
45764;SDS011;31474;45.332;10.230;2023-06-14T00:57:25;14.05;;;11.73;;
45764;SDS011;31474;45.332;10.230;2023-06-14T00:59:52;13.50;;;11.10;;
45764;SDS011;31474;45.332;10.230;2023-06-14T01:02:17;15.05;;;11.85;;
45764;SDS011;31474;45.332;10.230;2023-06-14T01:04:44;16.33;;;11.77;;
45764;SDS011;31474;45.332;10.230;2023-06-14T01:07:39;12.52;;;11.23;;
45764;SDS011;31474;45.332;10.230;2023-06-14T01:12:57;12.90;;;11.47;;
45764;SDS011;31474;45.332;10.230;2023-06-14T01:15:24;13.95;;;11.90;;
45764;SDS011;31474;45.332;10.230;2023-06-14T01:17:51;13.18;;;11.60;;
45764;SDS011;31474;45.332;10.230;2023-06-14T01:20:21;13.75;;;12.25;;
45764;SDS011;31474;45.332;10.230;2023-06-14T01:22:51;14.82;;;11.93;;
45764;SDS011;31474;45.332;10.230;2023-06-14T01:25:18;17.33;;;12.82;;
45764;SDS011;31474;45.332;10.230;2023-06-14T01:27:55;14.02;;;12.52;;
45764;SDS011;31474;45.332;10.230;2023-06-14T01:30:24;14.90;;;12.05;;
45764;SDS011;31474;45.332;10.230;2023-06-14T01:32:52;15.60;;;13.07;;
45764;SDS011;31474;45.332;10.230;2023-06-14T01:35:19;14.55;;;12.90;;
45764;SDS011;31474;45.332;10.230;2023-06-14T01:37:46;16.05;;;14.00;;
45764;SDS011;31474;45.332;10.230;2023-06-14T01:40:14;15.98;;;12.95;;
45764;SDS011;31474;45.332;10.230;2023-06-14T01:42:41;18.17;;;13.98;;
45764;SDS011;31474;45.332;10.230;2023-06-14T01:45:07;15.88;;;14.00;;
45764;SDS011;31474;45.332;10.230;2023-06-14T01:47:35;15.55;;;13.63;;
45764;SDS011;31474;45.332;10.230;2023-06-14T01:50:02;17.23;;;13.40;;
45764;SDS011;31474;45.332;10.230;2023-06-14T01:52:28;14.98;;;12.88;;
45764;SDS011;31474;45.332;10.230;2023-06-14T01:54:54;18.48;;;13.93;;
45764;SDS011;31474;45.332;10.230;2023-06-14T01:57:20;17.75;;;14.05;;
45764;SDS011;31474;45.332;10.230;2023-06-14T01:59:47;16.27;;;13.65;;
45764;SDS011;31474;45.332;10.230;2023-06-14T02:02:13;17.40;;;14.18;;
45764;SDS011;31474;45.332;10.230;2023-06-14T02:04:40;15.23;;;13.15;;
45764;SDS011;31474;45.332;10.230;2023-06-14T02:07:06;17.98;;;13.88;;
45764;SDS011;31474;45.332;10.230;2023-06-14T02:09:32;16.25;;;14.50;;
45764;SDS011;31474;45.332;10.230;2023-06-14T02:11:58;15.52;;;13.88;;
45764;SDS011;31474;45.332;10.230;2023-06-14T02:14:24;15.40;;;13.80;;
45764;SDS011;31474;45.332;10.230;2023-06-14T02:16:51;18.58;;;14.20;;
45764;SDS011;31474;45.332;10.230;2023-06-14T02:19:18;16.65;;;13.45;;
45764;SDS011;31474;45.332;10.230;2023-06-14T02:21:44;20.42;;;14.13;;
45764;SDS011;31474;45.332;10.230;2023-06-14T02:24:10;15.15;;;13.15;;
45764;SDS011;31474;45.332;10.230;2023-06-14T02:26:36;15.32;;;13.52;;
45764;SDS011;31474;45.332;10.230;2023-06-14T02:29:07;15.45;;;12.88;;
45764;SDS011;31474;45.332;10.230;2023-06-14T02:31:35;15.50;;;13.27;;
45764;SDS011;31474;45.332;10.230;2023-06-14T02:34:01;14.20;;;11.45;;
45764;SDS011;31474;45.332;10.230;2023-06-14T02:36:26;14.18;;;11.40;;
45764;SDS011;31474;45.332;10.230;2023-06-14T02:38:54;13.45;;;12.02;;
45764;SDS011;31474;45.332;10.230;2023-06-14T02:41:22;16.40;;;11.75;;
45764;SDS011;31474;45.332;10.230;2023-06-14T02:43:48;13.30;;;11.27;;
45764;SDS011;31474;45.332;10.230;2023-06-14T02:46:14;14.10;;;12.55;;
45764;SDS011;31474;45.332;10.230;2023-06-14T02:48:40;14.30;;;12.80;;
45764;SDS011;31474;45.332;10.230;2023-06-14T02:51:05;14.88;;;12.00;;
45764;SDS011;31474;45.332;10.230;2023-06-14T02:53:33;15.38;;;11.77;;
45764;SDS011;31474;45.332;10.230;2023-06-14T02:55:59;16.83;;;12.88;;
45764;SDS011;31474;45.332;10.230;2023-06-14T02:58:26;15.10;;;11.50;;
45764;SDS011;31474;45.332;10.230;2023-06-14T03:00:51;13.50;;;12.10;;
45764;SDS011;31474;45.332;10.230;2023-06-14T03:03:20;16.50;;;10.50;;
45764;SDS011;31474;45.332;10.230;2023-06-14T03:05:46;11.57;;;9.88;;
45764;SDS011;31474;45.332;10.230;2023-06-14T03:08:14;11.35;;;9.80;;
45764;SDS011;31474;45.332;10.230;2023-06-14T03:10:48;9.98;;;8.75;;
45764;SDS011;31474;45.332;10.230;2023-06-14T03:13:17;10.40;;;8.45;;
45764;SDS011;31474;45.332;10.230;2023-06-14T03:15:46;9.20;;;8.20;;
45764;SDS011;31474;45.332;10.230;2023-06-14T03:18:12;9.30;;;7.80;;
45764;SDS011;31474;45.332;10.230;2023-06-14T03:20:40;8.15;;;7.32;;
45764;SDS011;31474;45.332;10.230;2023-06-14T03:23:06;12.23;;;8.45;;
45764;SDS011;31474;45.332;10.230;2023-06-14T03:25:32;9.98;;;8.07;;
45764;SDS011;31474;45.332;10.230;2023-06-14T03:28:00;12.95;;;8.98;;
45764;SDS011;31474;45.332;10.230;2023-06-14T03:30:27;11.07;;;8.00;;
45764;SDS011;31474;45.332;10.230;2023-06-14T03:32:52;9.68;;;8.07;;
45764;SDS011;31474;45.332;10.230;2023-06-14T03:35:20;11.02;;;8.18;;
45764;SDS011;31474;45.332;10.230;2023-06-14T03:37:46;8.88;;;7.95;;
45764;SDS011;31474;45.332;10.230;2023-06-14T03:40:12;9.35;;;8.45;;
45764;SDS011;31474;45.332;10.230;2023-06-14T03:42:40;8.63;;;7.70;;
45764;SDS011;31474;45.332;10.230;2023-06-14T03:45:06;9.23;;;8.10;;
45764;SDS011;31474;45.332;10.230;2023-06-14T03:47:32;9.25;;;7.95;;
45764;SDS011;31474;45.332;10.230;2023-06-14T03:49:58;9.77;;;7.55;;
45764;SDS011;31474;45.332;10.230;2023-06-14T03:52:25;9.45;;;8.27;;
45764;SDS011;31474;45.332;10.230;2023-06-14T03:54:51;17.95;;;7.40;;
45764;SDS011;31474;45.332;10.230;2023-06-14T03:57:17;10.25;;;7.70;;
45764;SDS011;31474;45.332;10.230;2023-06-14T03:59:42;11.20;;;8.50;;
45764;SDS011;31474;45.332;10.230;2023-06-14T04:02:08;10.50;;;8.63;;
45764;SDS011;31474;45.332;10.230;2023-06-14T04:04:34;13.77;;;7.55;;
45764;SDS011;31474;45.332;10.230;2023-06-14T04:07:00;9.18;;;6.85;;
45764;SDS011;31474;45.332;10.230;2023-06-14T04:09:28;10.23;;;7.90;;
45764;SDS011;31474;45.332;10.230;2023-06-14T04:11:54;8.60;;;7.63;;
45764;SDS011;31474;45.332;10.230;2023-06-14T04:14:21;9.18;;;8.02;;
45764;SDS011;31474;45.332;10.230;2023-06-14T04:16:47;12.23;;;7.78;;
45764;SDS011;31474;45.332;10.230;2023-06-14T04:19:14;30.33;;;8.73;;
45764;SDS011;31474;45.332;10.230;2023-06-14T04:21:41;10.18;;;8.35;;
45764;SDS011;31474;45.332;10.230;2023-06-14T04:24:07;10.43;;;9.07;;
45764;SDS011;31474;45.332;10.230;2023-06-14T04:26:38;12.13;;;8.43;;
45764;SDS011;31474;45.332;10.230;2023-06-14T04:29:09;10.25;;;9.00;;
45764;SDS011;31474;45.332;10.230;2023-06-14T04:31:39;11.20;;;8.90;;
45764;SDS011;31474;45.332;10.230;2023-06-14T04:34:05;10.70;;;8.77;;
45764;SDS011;31474;45.332;10.230;2023-06-14T04:36:32;10.68;;;7.90;;
45764;SDS011;31474;45.332;10.230;2023-06-14T04:39:00;12.48;;;8.38;;
45764;SDS011;31474;45.332;10.230;2023-06-14T04:41:28;12.30;;;7.13;;
45764;SDS011;31474;45.332;10.230;2023-06-14T04:43:59;11.13;;;8.32;;
45764;SDS011;31474;45.332;10.230;2023-06-14T04:46:29;9.75;;;7.90;;
45764;SDS011;31474;45.332;10.230;2023-06-14T04:48:57;9.73;;;8.57;;
45764;SDS011;31474;45.332;10.230;2023-06-14T04:51:23;11.02;;;8.93;;
45764;SDS011;31474;45.332;10.230;2023-06-14T04:53:54;12.73;;;7.70;;
45764;SDS011;31474;45.332;10.230;2023-06-14T04:56:22;12.90;;;8.38;;
45764;SDS011;31474;45.332;10.230;2023-06-14T04:58:48;10.50;;;8.68;;
45764;SDS011;31474;45.332;10.230;2023-06-14T05:01:14;12.25;;;9.30;;
45764;SDS011;31474;45.332;10.230;2023-06-14T05:03:39;10.05;;;8.55;;
45764;SDS011;31474;45.332;10.230;2023-06-14T05:06:06;13.45;;;8.93;;
45764;SDS011;31474;45.332;10.230;2023-06-14T05:08:32;15.48;;;9.60;;
45764;SDS011;31474;45.332;10.230;2023-06-14T05:10:57;13.43;;;9.90;;
45764;SDS011;31474;45.332;10.230;2023-06-14T05:13:23;10.60;;;9.35;;
45764;SDS011;31474;45.332;10.230;2023-06-14T05:15:49;11.30;;;9.13;;
45764;SDS011;31474;45.332;10.230;2023-06-14T05:18:14;15.20;;;10.20;;
45764;SDS011;31474;45.332;10.230;2023-06-14T05:20:40;16.85;;;10.65;;
45764;SDS011;31474;45.332;10.230;2023-06-14T05:23:07;14.57;;;9.27;;
45764;SDS011;31474;45.332;10.230;2023-06-14T05:25:33;12.88;;;11.00;;
45764;SDS011;31474;45.332;10.230;2023-06-14T05:27:59;14.68;;;10.77;;
45764;SDS011;31474;45.332;10.230;2023-06-14T05:30:25;10.95;;;9.48;;
45764;SDS011;31474;45.332;10.230;2023-06-14T05:32:51;18.25;;;12.27;;
45764;SDS011;31474;45.332;10.230;2023-06-14T05:35:18;16.55;;;11.57;;
45764;SDS011;31474;45.332;10.230;2023-06-14T05:37:43;15.98;;;12.10;;
45764;SDS011;31474;45.332;10.230;2023-06-14T05:40:09;16.70;;;11.40;;
45764;SDS011;31474;45.332;10.230;2023-06-14T05:42:35;16.20;;;11.93;;
45764;SDS011;31474;45.332;10.230;2023-06-14T05:45:01;14.38;;;11.30;;
45764;SDS011;31474;45.332;10.230;2023-06-14T05:47:26;18.27;;;12.20;;
45764;SDS011;31474;45.332;10.230;2023-06-14T05:49:53;18.25;;;11.93;;
45764;SDS011;31474;45.332;10.230;2023-06-14T05:52:19;16.63;;;12.63;;
45764;SDS011;31474;45.332;10.230;2023-06-14T05:54:45;15.68;;;12.27;;
45764;SDS011;31474;45.332;10.230;2023-06-14T05:57:11;17.00;;;12.18;;
45764;SDS011;31474;45.332;10.230;2023-06-14T05:59:37;20.25;;;12.50;;
45764;SDS011;31474;45.332;10.230;2023-06-14T06:02:03;15.45;;;13.02;;
45764;SDS011;31474;45.332;10.230;2023-06-14T06:04:28;14.82;;;11.75;;
45764;SDS011;31474;45.332;10.230;2023-06-14T06:06:54;14.15;;;11.60;;
45764;SDS011;31474;45.332;10.230;2023-06-14T06:09:20;14.43;;;11.73;;
45764;SDS011;31474;45.332;10.230;2023-06-14T06:11:45;14.60;;;11.00;;
45764;SDS011;31474;45.332;10.230;2023-06-14T06:14:11;16.25;;;12.25;;
45764;SDS011;31474;45.332;10.230;2023-06-14T06:16:37;15.38;;;11.27;;
45764;SDS011;31474;45.332;10.230;2023-06-14T06:19:02;15.32;;;11.15;;
45764;SDS011;31474;45.332;10.230;2023-06-14T06:21:28;16.20;;;11.25;;
45764;SDS011;31474;45.332;10.230;2023-06-14T06:23:53;14.57;;;11.50;;
45764;SDS011;31474;45.332;10.230;2023-06-14T06:26:21;13.65;;;10.95;;
45764;SDS011;31474;45.332;10.230;2023-06-14T06:28:47;12.13;;;10.68;;
45764;SDS011;31474;45.332;10.230;2023-06-14T06:31:13;13.70;;;11.05;;
45764;SDS011;31474;45.332;10.230;2023-06-14T06:33:38;14.45;;;11.23;;
45764;SDS011;31474;45.332;10.230;2023-06-14T06:36:05;15.15;;;10.48;;
45764;SDS011;31474;45.332;10.230;2023-06-14T06:38:30;17.00;;;11.57;;
45764;SDS011;31474;45.332;10.230;2023-06-14T06:40:56;17.73;;;11.18;;
45764;SDS011;31474;45.332;10.230;2023-06-14T06:43:22;13.95;;;11.02;;
45764;SDS011;31474;45.332;10.230;2023-06-14T06:45:47;16.80;;;11.45;;
45764;SDS011;31474;45.332;10.230;2023-06-14T06:48:13;14.23;;;10.73;;
45764;SDS011;31474;45.332;10.230;2023-06-14T06:50:39;15.90;;;11.05;;
45764;SDS011;31474;45.332;10.230;2023-06-14T06:53:04;15.13;;;11.00;;
45764;SDS011;31474;45.332;10.230;2023-06-14T06:55:31;14.00;;;10.80;;
45764;SDS011;31474;45.332;10.230;2023-06-14T06:57:57;18.20;;;10.98;;
45764;SDS011;31474;45.332;10.230;2023-06-14T07:00:23;15.95;;;11.60;;
45764;SDS011;31474;45.332;10.230;2023-06-14T07:02:49;13.38;;;10.68;;
45764;SDS011;31474;45.332;10.230;2023-06-14T07:05:15;18.10;;;11.98;;
45764;SDS011;31474;45.332;10.230;2023-06-14T07:07:41;14.70;;;10.70;;
45764;SDS011;31474;45.332;10.230;2023-06-14T07:10:07;11.95;;;10.48;;
45764;SDS011;31474;45.332;10.230;2023-06-14T07:12:32;14.73;;;11.07;;
45764;SDS011;31474;45.332;10.230;2023-06-14T07:15:01;14.18;;;10.52;;
45764;SDS011;31474;45.332;10.230;2023-06-14T07:17:26;15.55;;;10.75;;
45764;SDS011;31474;45.332;10.230;2023-06-14T07:19:52;14.18;;;11.02;;
45764;SDS011;31474;45.332;10.230;2023-06-14T07:22:18;17.40;;;11.48;;
45764;SDS011;31474;45.332;10.230;2023-06-14T07:24:44;14.02;;;10.38;;
45764;SDS011;31474;45.332;10.230;2023-06-14T07:27:10;16.15;;;11.38;;
45764;SDS011;31474;45.332;10.230;2023-06-14T07:29:36;12.93;;;10.20;;
45764;SDS011;31474;45.332;10.230;2023-06-14T07:32:02;12.70;;;9.77;;
45764;SDS011;31474;45.332;10.230;2023-06-14T07:34:27;12.88;;;9.57;;
45764;SDS011;31474;45.332;10.230;2023-06-14T07:36:53;17.55;;;9.75;;
45764;SDS011;31474;45.332;10.230;2023-06-14T07:39:19;13.45;;;10.00;;
45764;SDS011;31474;45.332;10.230;2023-06-14T07:41:45;13.32;;;10.10;;
45764;SDS011;31474;45.332;10.230;2023-06-14T07:44:10;14.18;;;9.43;;
45764;SDS011;31474;45.332;10.230;2023-06-14T07:46:37;12.45;;;9.02;;
45764;SDS011;31474;45.332;10.230;2023-06-14T07:49:03;13.60;;;9.93;;
45764;SDS011;31474;45.332;10.230;2023-06-14T07:51:29;16.73;;;9.45;;
45764;SDS011;31474;45.332;10.230;2023-06-14T07:53:54;13.07;;;8.82;;
45764;SDS011;31474;45.332;10.230;2023-06-14T07:56:21;12.07;;;7.75;;
45764;SDS011;31474;45.332;10.230;2023-06-14T07:58:46;10.60;;;7.97;;
45764;SDS011;31474;45.332;10.230;2023-06-14T08:01:13;25.15;;;8.20;;
45764;SDS011;31474;45.332;10.230;2023-06-14T08:03:38;10.48;;;8.88;;
45764;SDS011;31474;45.332;10.230;2023-06-14T08:06:04;11.70;;;8.02;;
45764;SDS011;31474;45.332;10.230;2023-06-14T08:08:31;10.15;;;7.80;;
45764;SDS011;31474;45.332;10.230;2023-06-14T08:10:57;11.20;;;5.70;;
45764;SDS011;31474;45.332;10.230;2023-06-14T08:13:22;12.63;;;6.28;;
45764;SDS011;31474;45.332;10.230;2023-06-14T08:15:48;7.82;;;5.18;;
45764;SDS011;31474;45.332;10.230;2023-06-14T08:18:14;9.20;;;5.65;;
45764;SDS011;31474;45.332;10.230;2023-06-14T08:20:39;9.82;;;5.68;;
45764;SDS011;31474;45.332;10.230;2023-06-14T08:23:05;9.30;;;6.28;;
45764;SDS011;31474;45.332;10.230;2023-06-14T08:25:31;7.05;;;5.43;;
45764;SDS011;31474;45.332;10.230;2023-06-14T08:27:56;7.30;;;5.78;;
45764;SDS011;31474;45.332;10.230;2023-06-14T08:30:22;7.47;;;5.95;;
45764;SDS011;31474;45.332;10.230;2023-06-14T08:32:48;11.27;;;6.53;;
45764;SDS011;31474;45.332;10.230;2023-06-14T08:35:13;13.50;;;6.82;;
45764;SDS011;31474;45.332;10.230;2023-06-14T08:37:39;8.77;;;6.10;;
45764;SDS011;31474;45.332;10.230;2023-06-14T08:40:12;7.63;;;6.82;;
45764;SDS011;31474;45.332;10.230;2023-06-14T08:42:44;7.57;;;6.65;;
45764;SDS011;31474;45.332;10.230;2023-06-14T08:45:12;11.73;;;7.13;;
45764;SDS011;31474;45.332;10.230;2023-06-14T08:47:37;8.27;;;6.88;;
45764;SDS011;31474;45.332;10.230;2023-06-14T08:50:03;9.45;;;6.90;;
45764;SDS011;31474;45.332;10.230;2023-06-14T08:52:31;10.75;;;8.13;;
45764;SDS011;31474;45.332;10.230;2023-06-14T08:55:05;8.98;;;8.07;;
45764;SDS011;31474;45.332;10.230;2023-06-14T08:57:33;9.68;;;6.78;;
45764;SDS011;31474;45.332;10.230;2023-06-14T09:00:02;9.98;;;7.22;;
45764;SDS011;31474;45.332;10.230;2023-06-14T09:02:36;11.00;;;8.23;;
45764;SDS011;31474;45.332;10.230;2023-06-14T09:05:02;9.48;;;7.07;;
45764;SDS011;31474;45.332;10.230;2023-06-14T09:07:28;9.10;;;7.72;;
45764;SDS011;31474;45.332;10.230;2023-06-14T09:10:10;9.57;;;7.15;;
45764;SDS011;31474;45.332;10.230;2023-06-14T09:12:37;9.35;;;7.50;;
45764;SDS011;31474;45.332;10.230;2023-06-14T09:15:04;12.82;;;7.75;;
45764;SDS011;31474;45.332;10.230;2023-06-14T09:17:37;11.60;;;8.00;;
45764;SDS011;31474;45.332;10.230;2023-06-14T09:20:04;11.45;;;8.70;;
45764;SDS011;31474;45.332;10.230;2023-06-14T09:22:39;11.27;;;8.73;;
45764;SDS011;31474;45.332;10.230;2023-06-14T09:25:05;9.90;;;7.15;;
45764;SDS011;31474;45.332;10.230;2023-06-14T09:27:31;11.38;;;7.53;;
45764;SDS011;31474;45.332;10.230;2023-06-14T09:29:57;8.90;;;7.18;;
45764;SDS011;31474;45.332;10.230;2023-06-14T09:32:23;12.30;;;7.50;;
45764;SDS011;31474;45.332;10.230;2023-06-14T09:34:49;11.63;;;7.53;;
45764;SDS011;31474;45.332;10.230;2023-06-14T09:37:28;10.07;;;7.40;;
45764;SDS011;31474;45.332;10.230;2023-06-14T09:39:54;12.38;;;7.53;;
45764;SDS011;31474;45.332;10.230;2023-06-14T09:42:20;8.50;;;6.60;;
45764;SDS011;31474;45.332;10.230;2023-06-14T09:44:47;11.80;;;8.23;;
45764;SDS011;31474;45.332;10.230;2023-06-14T09:47:16;9.23;;;6.70;;
45764;SDS011;31474;45.332;10.230;2023-06-14T09:49:43;9.18;;;7.03;;
45764;SDS011;31474;45.332;10.230;2023-06-14T09:52:12;10.20;;;7.40;;
45764;SDS011;31474;45.332;10.230;2023-06-14T09:54:40;14.30;;;7.45;;
45764;SDS011;31474;45.332;10.230;2023-06-14T09:57:19;8.20;;;7.35;;
45764;SDS011;31474;45.332;10.230;2023-06-14T09:59:47;10.57;;;6.65;;
45764;SDS011;31474;45.332;10.230;2023-06-14T10:02:25;10.40;;;6.68;;
45764;SDS011;31474;45.332;10.230;2023-06-14T10:04:54;12.45;;;6.55;;
45764;SDS011;31474;45.332;10.230;2023-06-14T10:07:25;8.77;;;6.45;;
45764;SDS011;31474;45.332;10.230;2023-06-14T10:09:55;8.32;;;6.57;;
45764;SDS011;31474;45.332;10.230;2023-06-14T10:12:21;8.85;;;7.18;;
45764;SDS011;31474;45.332;10.230;2023-06-14T10:14:51;13.65;;;7.10;;
45764;SDS011;31474;45.332;10.230;2023-06-14T10:17:22;10.13;;;6.50;;
45764;SDS011;31474;45.332;10.230;2023-06-14T10:20:03;8.80;;;6.93;;
45764;SDS011;31474;45.332;10.230;2023-06-14T10:22:51;10.65;;;6.43;;
45764;SDS011;31474;45.332;10.230;2023-06-14T10:25:28;10.70;;;7.18;;
45764;SDS011;31474;45.332;10.230;2023-06-14T10:30:58;11.05;;;7.57;;
45764;SDS011;31474;45.332;10.230;2023-06-14T10:33:33;9.13;;;7.35;;
45764;SDS011;31474;45.332;10.230;2023-06-14T10:36:07;12.85;;;6.28;;
45764;SDS011;31474;45.332;10.230;2023-06-14T10:41:26;6.15;;;5.55;;
45764;SDS011;31474;45.332;10.230;2023-06-14T10:46:37;6.63;;;3.92;;
45764;SDS011;31474;45.332;10.230;2023-06-14T10:49:03;4.78;;;4.28;;
45764;SDS011;31474;45.332;10.230;2023-06-14T10:51:30;5.95;;;3.80;;
45764;SDS011;31474;45.332;10.230;2023-06-14T10:54:13;4.65;;;3.72;;
45764;SDS011;31474;45.332;10.230;2023-06-14T10:56:46;6.68;;;3.67;;
45764;SDS011;31474;45.332;10.230;2023-06-14T10:59:19;4.50;;;3.70;;
45764;SDS011;31474;45.332;10.230;2023-06-14T11:04:34;5.45;;;3.83;;
45764;SDS011;31474;45.332;10.230;2023-06-14T11:07:18;3.80;;;3.15;;
45764;SDS011;31474;45.332;10.230;2023-06-14T11:10:19;4.00;;;3.60;;
45764;SDS011;31474;45.332;10.230;2023-06-14T11:13:05;4.50;;;3.85;;
45764;SDS011;31474;45.332;10.230;2023-06-14T11:15:37;6.25;;;5.05;;
45764;SDS011;31474;45.332;10.230;2023-06-14T11:18:07;4.93;;;4.22;;
45764;SDS011;31474;45.332;10.230;2023-06-14T11:20:34;4.32;;;3.50;;
45764;SDS011;31474;45.332;10.230;2023-06-14T11:23:01;7.80;;;5.07;;
45764;SDS011;31474;45.332;10.230;2023-06-14T11:25:28;7.38;;;4.90;;
45764;SDS011;31474;45.332;10.230;2023-06-14T11:27:53;6.25;;;4.95;;
45764;SDS011;31474;45.332;10.230;2023-06-14T11:30:23;6.30;;;4.15;;
45764;SDS011;31474;45.332;10.230;2023-06-14T11:32:50;5.13;;;4.05;;
45764;SDS011;31474;45.332;10.230;2023-06-14T11:35:18;7.35;;;5.35;;
45764;SDS011;31474;45.332;10.230;2023-06-14T11:37:46;7.60;;;4.32;;
45764;SDS011;31474;45.332;10.230;2023-06-14T11:40:14;5.07;;;4.47;;
45764;SDS011;31474;45.332;10.230;2023-06-14T11:42:40;10.77;;;4.68;;
45764;SDS011;31474;45.332;10.230;2023-06-14T11:45:09;6.30;;;4.93;;
45764;SDS011;31474;45.332;10.230;2023-06-14T11:47:36;6.38;;;5.07;;
45764;SDS011;31474;45.332;10.230;2023-06-14T11:50:04;5.93;;;5.13;;
45764;SDS011;31474;45.332;10.230;2023-06-14T11:52:31;9.43;;;4.45;;
45764;SDS011;31474;45.332;10.230;2023-06-14T11:54:57;5.38;;;4.43;;
45764;SDS011;31474;45.332;10.230;2023-06-14T11:57:23;5.20;;;4.47;;
45764;SDS011;31474;45.332;10.230;2023-06-14T11:59:50;5.15;;;4.65;;
45764;SDS011;31474;45.332;10.230;2023-06-14T12:02:16;8.43;;;4.85;;
45764;SDS011;31474;45.332;10.230;2023-06-14T12:04:43;9.18;;;5.00;;
45764;SDS011;31474;45.332;10.230;2023-06-14T12:07:12;7.10;;;4.72;;
45764;SDS011;31474;45.332;10.230;2023-06-14T12:12:23;5.93;;;4.63;;
45764;SDS011;31474;45.332;10.230;2023-06-14T12:14:53;8.27;;;4.25;;
45764;SDS011;31474;45.332;10.230;2023-06-14T12:17:20;5.32;;;3.72;;
45764;SDS011;31474;45.332;10.230;2023-06-14T12:19:45;6.05;;;4.15;;
45764;SDS011;31474;45.332;10.230;2023-06-14T12:22:13;4.68;;;3.58;;
45764;SDS011;31474;45.332;10.230;2023-06-14T12:24:39;5.25;;;4.68;;
45764;SDS011;31474;45.332;10.230;2023-06-14T12:27:07;3.95;;;3.17;;
45764;SDS011;31474;45.332;10.230;2023-06-14T12:29:33;6.05;;;4.00;;
45764;SDS011;31474;45.332;10.230;2023-06-14T12:31:59;8.07;;;5.03;;
45764;SDS011;31474;45.332;10.230;2023-06-14T12:34:25;5.53;;;4.68;;
45764;SDS011;31474;45.332;10.230;2023-06-14T12:36:55;4.95;;;3.85;;
45764;SDS011;31474;45.332;10.230;2023-06-14T12:39:21;9.43;;;5.47;;
45764;SDS011;31474;45.332;10.230;2023-06-14T12:41:47;5.82;;;4.65;;
45764;SDS011;31474;45.332;10.230;2023-06-14T12:44:14;8.55;;;4.90;;
45764;SDS011;31474;45.332;10.230;2023-06-14T12:46:41;5.95;;;4.60;;
45764;SDS011;31474;45.332;10.230;2023-06-14T12:49:08;6.88;;;4.80;;
45764;SDS011;31474;45.332;10.230;2023-06-14T12:51:35;5.13;;;4.10;;
45764;SDS011;31474;45.332;10.230;2023-06-14T12:54:00;6.07;;;3.90;;
45764;SDS011;31474;45.332;10.230;2023-06-14T12:56:26;4.80;;;4.18;;
45764;SDS011;31474;45.332;10.230;2023-06-14T12:58:52;7.40;;;4.10;;
45764;SDS011;31474;45.332;10.230;2023-06-14T13:01:18;5.35;;;3.50;;
45764;SDS011;31474;45.332;10.230;2023-06-14T13:03:44;3.42;;;2.45;;
45764;SDS011;31474;45.332;10.230;2023-06-14T13:06:10;3.92;;;2.85;;
45764;SDS011;31474;45.332;10.230;2023-06-14T13:08:36;3.58;;;3.00;;
45764;SDS011;31474;45.332;10.230;2023-06-14T13:11:01;3.60;;;2.67;;
45764;SDS011;31474;45.332;10.230;2023-06-14T13:13:27;2.95;;;2.35;;
45764;SDS011;31474;45.332;10.230;2023-06-14T13:15:52;3.03;;;2.38;;
45764;SDS011;31474;45.332;10.230;2023-06-14T13:18:18;4.38;;;3.20;;
45764;SDS011;31474;45.332;10.230;2023-06-14T13:20:45;5.05;;;3.10;;
45764;SDS011;31474;45.332;10.230;2023-06-14T13:23:11;5.30;;;3.50;;
45764;SDS011;31474;45.332;10.230;2023-06-14T13:25:37;5.20;;;2.83;;
45764;SDS011;31474;45.332;10.230;2023-06-14T13:28:03;4.60;;;2.97;;
45764;SDS011;31474;45.332;10.230;2023-06-14T13:30:29;4.05;;;2.45;;
45764;SDS011;31474;45.332;10.230;2023-06-14T13:32:56;3.67;;;2.60;;
45764;SDS011;31474;45.332;10.230;2023-06-14T13:35:23;3.28;;;2.97;;
45764;SDS011;31474;45.332;10.230;2023-06-14T13:37:49;3.65;;;3.22;;
45764;SDS011;31474;45.332;10.230;2023-06-14T13:40:15;7.75;;;2.90;;
45764;SDS011;31474;45.332;10.230;2023-06-14T13:42:41;5.47;;;3.25;;
45764;SDS011;31474;45.332;10.230;2023-06-14T13:45:07;5.25;;;3.38;;
45764;SDS011;31474;45.332;10.230;2023-06-14T13:47:33;6.55;;;3.40;;
45764;SDS011;31474;45.332;10.230;2023-06-14T13:49:59;4.82;;;3.40;;
45764;SDS011;31474;45.332;10.230;2023-06-14T13:52:25;5.53;;;4.88;;
45764;SDS011;31474;45.332;10.230;2023-06-14T13:54:51;10.95;;;4.30;;
45764;SDS011;31474;45.332;10.230;2023-06-14T13:57:17;4.93;;;4.00;;
45764;SDS011;31474;45.332;10.230;2023-06-14T13:59:43;9.52;;;4.07;;
45764;SDS011;31474;45.332;10.230;2023-06-14T14:02:09;7.05;;;4.50;;
45764;SDS011;31474;45.332;10.230;2023-06-14T14:04:36;5.78;;;4.40;;
45764;SDS011;31474;45.332;10.230;2023-06-14T14:07:03;9.20;;;4.15;;
45764;SDS011;31474;45.332;10.230;2023-06-14T14:09:31;5.72;;;4.57;;
45764;SDS011;31474;45.332;10.230;2023-06-14T14:12:00;5.38;;;4.10;;
45764;SDS011;31474;45.332;10.230;2023-06-14T14:14:27;6.15;;;4.40;;
45764;SDS011;31474;45.332;10.230;2023-06-14T14:16:53;7.30;;;4.82;;
45764;SDS011;31474;45.332;10.230;2023-06-14T14:19:20;5.88;;;3.92;;
45764;SDS011;31474;45.332;10.230;2023-06-14T14:21:46;5.20;;;4.07;;
45764;SDS011;31474;45.332;10.230;2023-06-14T14:24:12;5.07;;;3.92;;
45764;SDS011;31474;45.332;10.230;2023-06-14T14:26:38;6.80;;;4.50;;
45764;SDS011;31474;45.332;10.230;2023-06-14T14:29:04;12.80;;;5.53;;
45764;SDS011;31474;45.332;10.230;2023-06-14T14:31:30;8.90;;;5.78;;
45764;SDS011;31474;45.332;10.230;2023-06-14T14:33:55;6.40;;;5.10;;
45764;SDS011;31474;45.332;10.230;2023-06-14T14:36:21;5.80;;;5.10;;
45764;SDS011;31474;45.332;10.230;2023-06-14T14:38:47;5.40;;;4.10;;